createdAt,value
2023-05-19T01:01:21.921Z,14.60
2023-05-19T01:03:49.883Z,14.50
2023-05-19T01:06:19.231Z,13.40
2023-05-19T01:08:46.489Z,13.00
2023-05-19T01:11:13.194Z,13.90
2023-05-19T01:13:41.905Z,13.60
2023-05-19T01:16:37.544Z,14.10
2023-05-19T01:19:10.981Z,13.80
2023-05-19T01:21:56.211Z,14.10
2023-05-19T01:24:34.010Z,13.30
2023-05-19T01:27:24.046Z,13.90
2023-05-19T01:30:28.756Z,14.30
2023-05-19T01:32:58.953Z,13.70
2023-05-19T01:35:26.280Z,14.20
2023-05-19T01:37:58.007Z,13.30
2023-05-19T01:40:25.060Z,12.50
2023-05-19T01:42:53.978Z,11.90
2023-05-19T01:45:21.895Z,13.00
2023-05-19T01:47:50.568Z,11.80
2023-05-19T01:50:18.486Z,11.40
2023-05-19T01:52:45.308Z,10.70
2023-05-19T01:55:11.944Z,10.20
2023-05-19T01:58:13.687Z,10.40
2023-05-19T02:00:56.280Z,9.40
2023-05-19T02:03:43.814Z,9.50
2023-05-19T02:06:31.253Z,9.80
2023-05-19T02:09:10.162Z,10.10
2023-05-19T02:11:38.610Z,9.90
2023-05-19T02:14:13.995Z,9.10
2023-05-19T02:16:40.673Z,10.00
2023-05-19T02:19:07.412Z,11.40
2023-05-19T02:21:34.189Z,8.60
2023-05-19T02:24:01.044Z,10.00
2023-05-19T02:26:27.742Z,9.30
2023-05-19T02:28:55.073Z,9.90
2023-05-19T02:31:22.083Z,9.40
2023-05-19T02:36:15.951Z,10.50
2023-05-19T02:38:42.723Z,9.00
2023-05-19T02:41:09.404Z,9.20
2023-05-19T02:43:36.346Z,8.90
2023-05-19T02:46:03.077Z,8.90
2023-05-19T02:48:29.944Z,9.30
2023-05-19T02:50:56.945Z,8.50
2023-05-19T02:53:24.791Z,8.30
2023-05-19T02:55:51.520Z,8.60
2023-05-19T02:58:18.846Z,8.80
2023-05-19T03:00:45.664Z,8.40
2023-05-19T03:03:13.901Z,8.30
2023-05-19T03:05:41.673Z,8.90
2023-05-19T03:08:09.352Z,8.70
2023-05-19T03:10:36.422Z,8.30
2023-05-19T03:13:03.063Z,7.30
2023-05-19T03:15:30.685Z,8.70
2023-05-19T03:17:57.514Z,7.30
2023-05-19T03:20:24.678Z,6.70
2023-05-19T03:22:51.491Z,7.60
2023-05-19T03:25:18.902Z,6.90
2023-05-19T03:27:45.798Z,7.10
2023-05-19T03:30:13.381Z,7.00
2023-05-19T03:32:52.071Z,6.70
2023-05-19T03:35:19.086Z,7.00
2023-05-19T03:37:46.028Z,7.00
2023-05-19T03:40:13.753Z,6.80
2023-05-19T03:42:41.756Z,6.30
2023-05-19T03:45:09.158Z,7.00
2023-05-19T03:47:35.984Z,6.90
2023-05-19T03:50:10.653Z,7.10
2023-05-19T03:52:48.951Z,6.40
2023-05-19T03:55:24.202Z,7.30
2023-05-19T03:57:52.554Z,7.40
2023-05-19T04:00:19.316Z,6.60
2023-05-19T04:02:46.055Z,7.10
2023-05-19T04:05:12.989Z,7.10
2023-05-19T04:07:39.703Z,7.30
2023-05-19T04:10:07.465Z,7.00
2023-05-19T04:12:34.124Z,6.70
2023-05-19T04:15:00.994Z,6.90
2023-05-19T04:17:27.985Z,7.30
2023-05-19T04:19:55.330Z,6.80
2023-05-19T04:22:22.503Z,6.90
2023-05-19T04:24:50.611Z,7.40
2023-05-19T04:27:18.284Z,7.40
2023-05-19T04:32:17.834Z,6.90
2023-05-19T04:34:47.843Z,6.80
2023-05-19T04:37:20.375Z,7.20
2023-05-19T04:39:48.335Z,7.10
2023-05-19T04:42:20.363Z,7.10
2023-05-19T04:44:49.428Z,7.00
2023-05-19T04:47:16.557Z,7.30
2023-05-19T04:49:43.387Z,7.00
2023-05-19T04:52:11.084Z,7.10
2023-05-19T04:54:38.641Z,6.30
2023-05-19T04:57:06.448Z,6.80
2023-05-19T04:59:36.131Z,6.10
2023-05-19T05:04:31.298Z,6.60
2023-05-19T05:06:58.690Z,6.90
2023-05-19T05:09:25.524Z,6.30
2023-05-19T05:11:53.394Z,6.90
2023-05-19T05:14:20.529Z,6.30
2023-05-19T05:16:47.892Z,6.10
2023-05-19T05:19:17.595Z,6.30
2023-05-19T05:21:44.898Z,6.60
2023-05-19T05:24:12.233Z,5.70
2023-05-19T05:26:39.656Z,6.20
2023-05-19T05:29:06.670Z,6.60
2023-05-19T05:31:34.136Z,6.70
2023-05-19T05:34:02.148Z,6.60
2023-05-19T05:36:31.729Z,6.60
2023-05-19T05:38:59.962Z,5.80
2023-05-19T05:41:27.510Z,7.00
2023-05-19T05:46:21.045Z,6.10
2023-05-19T05:48:48.133Z,6.60
2023-05-19T05:51:15.376Z,6.60
2023-05-19T05:53:43.470Z,6.40
2023-05-19T05:56:11.634Z,6.40
2023-05-19T05:58:44.154Z,6.40
2023-05-19T06:01:11.595Z,7.10
2023-05-19T06:06:13.323Z,7.00
2023-05-19T06:08:40.378Z,6.90
2023-05-19T06:13:39.223Z,7.40
2023-05-19T06:16:07.776Z,7.60
2023-05-19T06:18:44.095Z,7.70
2023-05-19T06:21:13.433Z,7.60
2023-05-19T06:23:41.104Z,8.30
2023-05-19T06:26:08.931Z,8.50
2023-05-19T06:28:35.788Z,8.60
2023-05-19T06:31:02.685Z,8.90
2023-05-19T06:33:48.128Z,8.00
2023-05-19T06:36:15.314Z,8.60
2023-05-19T06:38:42.530Z,7.20
2023-05-19T06:41:09.544Z,7.80
2023-05-19T06:43:36.752Z,7.60
2023-05-19T06:46:04.197Z,7.80
2023-05-19T06:48:32.118Z,7.90
2023-05-19T06:50:58.921Z,7.90
2023-05-19T06:53:25.874Z,7.50
2023-05-19T06:55:58.864Z,8.50
2023-05-19T06:58:28.052Z,7.70
2023-05-19T07:00:55.506Z,8.30
2023-05-19T07:03:23.570Z,8.40
2023-05-19T07:05:50.457Z,9.50
2023-05-19T07:08:17.783Z,8.60
2023-05-19T07:10:45.044Z,8.40
2023-05-19T07:13:14.303Z,9.10
2023-05-19T07:15:41.230Z,9.60
2023-05-19T07:18:07.991Z,8.60
2023-05-19T07:20:35.607Z,9.20
2023-05-19T07:23:02.924Z,8.90
2023-05-19T07:25:30.648Z,8.70
2023-05-19T07:27:57.510Z,8.40
2023-05-19T07:30:24.278Z,7.80
2023-05-19T07:32:51.056Z,9.00
2023-05-19T07:35:17.752Z,8.10
2023-05-19T07:37:44.501Z,7.90
2023-05-19T07:40:11.822Z,7.00
2023-05-19T07:42:38.479Z,7.40
2023-05-19T07:45:06.118Z,8.10
2023-05-19T07:47:32.790Z,7.90
2023-05-19T07:49:59.487Z,7.80
2023-05-19T07:52:26.195Z,6.80
2023-05-19T07:54:53.307Z,8.00
2023-05-19T07:57:20.523Z,7.40
2023-05-19T07:59:47.321Z,7.60
2023-05-19T08:02:14.011Z,7.70
2023-05-19T08:04:40.753Z,8.20
2023-05-19T08:07:07.502Z,7.90
2023-05-19T08:09:34.158Z,8.00
2023-05-19T08:12:01.810Z,7.30
2023-05-19T08:14:28.462Z,8.80
2023-05-19T08:16:55.193Z,8.70
2023-05-19T08:19:21.960Z,8.40
2023-05-19T08:21:49.766Z,8.60
2023-05-19T08:24:16.793Z,8.30
2023-05-19T08:26:44.272Z,8.00
2023-05-19T08:29:10.997Z,7.10
2023-05-19T08:31:37.746Z,7.50
2023-05-19T08:34:04.611Z,7.50
2023-05-19T08:36:31.335Z,6.80
2023-05-19T08:38:57.978Z,7.70
2023-05-19T08:41:24.675Z,7.70
2023-05-19T08:43:51.331Z,7.20
2023-05-19T08:46:18.435Z,6.70
2023-05-19T08:48:45.455Z,7.30
2023-05-19T08:51:23.842Z,7.10
2023-05-19T08:53:51.647Z,6.90
2023-05-19T08:56:22.085Z,7.60
2023-05-19T08:58:52.521Z,7.80
2023-05-19T09:01:19.776Z,8.50
2023-05-19T09:03:47.385Z,7.50
2023-05-19T09:06:14.270Z,8.00
2023-05-19T09:08:42.361Z,9.10
2023-05-19T09:11:09.639Z,7.90
2023-05-19T09:13:36.312Z,8.30
2023-05-19T09:16:03.749Z,8.60
2023-05-19T09:18:30.609Z,8.10
2023-05-19T09:21:02.376Z,8.60
2023-05-19T09:23:30.387Z,8.30
2023-05-19T09:25:57.419Z,9.10
2023-05-19T09:28:28.045Z,10.30
2023-05-19T09:31:10.802Z,8.70
2023-05-19T09:33:38.793Z,10.30
2023-05-19T09:36:06.681Z,9.50
2023-05-19T09:38:33.640Z,9.20
2023-05-19T09:41:01.039Z,9.10
2023-05-19T09:45:59.058Z,9.20
2023-05-19T09:48:27.756Z,8.20
2023-05-19T09:50:54.739Z,8.40
2023-05-19T09:53:21.765Z,8.80
2023-05-19T09:55:48.929Z,8.00
2023-05-19T09:58:18.920Z,8.50
2023-05-19T10:00:47.054Z,7.90
2023-05-19T10:03:13.903Z,9.10
2023-05-19T10:05:41.715Z,9.50
2023-05-19T10:08:10.415Z,8.60
2023-05-19T10:10:38.075Z,11.30
2023-05-19T10:13:06.016Z,8.50
2023-05-19T10:15:36.115Z,8.40
2023-05-19T10:18:05.177Z,7.30
2023-05-19T10:20:32.082Z,8.50
2023-05-19T10:22:59.002Z,7.10
2023-05-19T10:25:25.814Z,7.60
2023-05-19T10:27:57.902Z,6.90
2023-05-19T10:30:39.325Z,6.60
2023-05-19T10:33:08.247Z,7.00
2023-05-19T10:35:41.486Z,7.20
2023-05-19T10:38:53.523Z,7.30
2023-05-19T10:41:59.768Z,6.70
2023-05-19T10:44:52.035Z,6.00
2023-05-19T10:47:25.679Z,5.40
2023-05-19T10:49:53.924Z,5.70
2023-05-19T10:52:26.009Z,6.10
2023-05-19T10:54:54.722Z,6.00
2023-05-19T10:57:33.183Z,6.20
2023-05-19T11:00:09.908Z,5.70
2023-05-19T11:02:40.416Z,6.30
2023-05-19T11:05:15.091Z,5.70
2023-05-19T11:07:55.014Z,7.00
2023-05-19T11:10:24.961Z,5.40
2023-05-19T11:12:52.236Z,6.10
2023-05-19T11:17:48.584Z,5.50
2023-05-19T11:20:25.120Z,6.00
2023-05-19T11:23:04.752Z,5.30
2023-05-19T11:25:51.642Z,5.20
2023-05-19T11:28:20.105Z,5.90
2023-05-19T11:30:50.704Z,5.80
2023-05-19T11:33:20.667Z,5.70
2023-05-19T11:35:49.317Z,5.90
2023-05-19T11:38:17.165Z,6.20
2023-05-19T11:40:43.828Z,6.20
2023-05-19T11:43:10.698Z,6.30
2023-05-19T11:45:37.581Z,5.90
2023-05-19T11:48:05.430Z,5.70
2023-05-19T11:50:32.572Z,6.60
2023-05-19T11:53:00.139Z,6.80
2023-05-19T11:55:27.246Z,6.40
2023-05-19T11:58:05.601Z,6.90
2023-05-19T12:00:38.009Z,6.80
2023-05-19T12:03:05.489Z,6.30
2023-05-19T12:05:35.493Z,6.60
2023-05-19T12:08:06.337Z,6.20
2023-05-19T12:10:34.427Z,6.50
2023-05-19T12:13:02.094Z,7.60
2023-05-19T12:15:28.801Z,7.00
2023-05-19T12:18:05.764Z,6.80
2023-05-19T12:20:32.763Z,7.20
2023-05-19T12:23:00.302Z,8.30
2023-05-19T12:27:58.302Z,6.80
2023-05-19T12:30:27.104Z,7.10
2023-05-19T12:32:54.356Z,6.30
2023-05-19T12:35:23.415Z,6.50
2023-05-19T12:37:50.712Z,6.50
2023-05-19T12:42:45.400Z,7.40
2023-05-19T12:45:12.051Z,7.20
2023-05-19T12:47:39.055Z,7.30
2023-05-19T12:50:08.212Z,7.20
2023-05-19T12:52:48.711Z,7.60
2023-05-19T12:55:16.671Z,7.00
2023-05-19T12:57:44.724Z,7.00
2023-05-19T13:00:21.111Z,7.10
2023-05-19T13:03:06.689Z,7.00
2023-05-19T13:05:38.075Z,5.70
2023-05-19T13:08:09.367Z,4.80
2023-05-19T13:10:37.264Z,5.50
2023-05-19T13:13:04.269Z,5.40
2023-05-19T13:15:34.486Z,6.40
2023-05-19T13:18:06.872Z,6.00
2023-05-19T13:20:35.237Z,5.80
2023-05-19T13:23:02.430Z,6.20
2023-05-19T13:25:29.144Z,5.30
2023-05-19T13:27:58.910Z,5.60
2023-05-19T13:30:25.878Z,5.60
2023-05-19T13:32:52.847Z,5.70
2023-05-19T13:35:20.384Z,6.30
2023-05-19T13:40:13.814Z,6.90
2023-05-19T13:42:40.646Z,7.10
2023-05-19T13:45:08.138Z,7.30
2023-05-19T13:50:02.849Z,7.40
2023-05-19T13:52:30.468Z,7.80
2023-05-19T13:54:57.530Z,9.00
2023-05-19T13:57:24.429Z,8.60
2023-05-19T14:00:01.994Z,9.10
2023-05-19T14:02:39.273Z,9.10
2023-05-19T14:07:35.117Z,9.10
2023-05-19T14:10:06.872Z,9.50
2023-05-19T14:12:44.983Z,9.30
2023-05-19T14:15:19.812Z,9.10
2023-05-19T14:17:46.527Z,9.50
2023-05-19T14:20:13.283Z,10.20
2023-05-19T14:22:40.010Z,11.30
2023-05-19T14:25:07.537Z,10.60
2023-05-19T14:27:34.265Z,10.50
2023-05-19T14:30:00.979Z,10.50
2023-05-19T14:32:30.062Z,10.60
2023-05-19T14:34:57.237Z,9.80
2023-05-19T14:37:24.386Z,10.40
2023-05-19T14:39:51.058Z,11.00
2023-05-19T14:42:17.669Z,11.40
2023-05-19T14:44:44.371Z,12.20
2023-05-19T14:47:12.469Z,12.20
2023-05-19T14:49:39.348Z,12.30
2023-05-19T14:52:06.254Z,11.50
2023-05-19T14:54:33.123Z,11.90
2023-05-19T14:57:00.297Z,12.40
2023-05-19T14:59:27.466Z,11.60
2023-05-19T15:01:54.161Z,11.50
2023-05-19T15:04:21.111Z,11.20
2023-05-19T15:06:52.302Z,12.10
2023-05-19T15:09:25.513Z,12.50
2023-05-19T15:11:52.150Z,11.10
2023-05-19T15:14:18.793Z,11.20
2023-05-19T15:16:45.594Z,11.20
2023-05-19T15:19:12.478Z,10.40
2023-05-19T15:21:39.906Z,10.50
2023-05-19T15:26:33.915Z,10.50
2023-05-19T15:29:00.553Z,10.40
2023-05-19T15:31:27.751Z,10.60
2023-05-19T15:33:54.700Z,10.00
2023-05-19T15:36:21.551Z,10.10
2023-05-19T15:38:48.203Z,10.30
2023-05-19T15:41:14.850Z,9.50
2023-05-19T15:43:41.698Z,11.00
2023-05-19T15:46:08.402Z,10.70
2023-05-19T15:48:35.406Z,10.30
2023-05-19T15:51:02.096Z,10.50
2023-05-19T15:53:29.064Z,10.60
2023-05-19T15:55:57.477Z,10.10
2023-05-19T15:58:24.152Z,10.00
2023-05-19T16:00:51.011Z,10.60
2023-05-19T16:03:17.831Z,10.60
2023-05-19T16:05:44.625Z,10.70
2023-05-19T16:08:11.660Z,10.30
2023-05-19T16:10:38.592Z,10.50
2023-05-19T16:13:05.265Z,10.30
2023-05-19T16:15:31.897Z,11.70
2023-05-19T16:17:58.704Z,10.50
2023-05-19T16:20:28.227Z,11.20
2023-05-19T16:22:55.598Z,10.40
2023-05-19T16:25:22.347Z,10.60
2023-05-19T16:27:49.107Z,10.20
2023-05-19T16:30:16.608Z,10.40
2023-05-19T16:32:43.410Z,10.70
2023-05-19T16:35:10.125Z,10.50
2023-05-19T16:37:36.777Z,10.10
2023-05-19T16:40:04.244Z,9.90
2023-05-19T16:44:58.679Z,10.40
2023-05-19T16:47:25.559Z,9.30
2023-05-19T16:49:52.392Z,9.60
2023-05-19T16:52:19.073Z,9.90
2023-05-19T16:54:45.934Z,10.00
2023-05-19T16:57:14.925Z,10.00
2023-05-19T16:59:41.991Z,10.00
2023-05-19T17:02:08.725Z,10.00
2023-05-19T17:04:35.422Z,9.70
2023-05-19T17:07:02.060Z,9.90
2023-05-19T17:09:28.870Z,9.60
2023-05-19T17:11:56.021Z,8.20
2023-05-19T17:14:22.647Z,9.30
2023-05-19T17:16:49.979Z,8.30
2023-05-19T17:19:16.969Z,8.70
2023-05-19T17:21:43.625Z,8.50
2023-05-19T17:24:10.301Z,8.70
2023-05-19T17:26:37.292Z,8.00
2023-05-19T17:29:04.190Z,7.80
2023-05-19T17:31:32.339Z,7.90
2023-05-19T17:33:59.462Z,8.20
2023-05-19T17:36:26.468Z,9.40
2023-05-19T17:38:53.153Z,7.70
2023-05-19T17:41:19.902Z,8.00
2023-05-19T17:43:46.554Z,7.90
2023-05-19T17:46:13.535Z,8.10
2023-05-19T17:48:40.308Z,8.60
2023-05-19T17:51:07.526Z,8.60
2023-05-19T17:53:34.876Z,8.70
2023-05-19T17:56:03.311Z,9.10
2023-05-19T17:58:30.571Z,8.80
2023-05-19T18:00:57.434Z,9.70
2023-05-19T18:03:24.566Z,9.20
2023-05-19T18:05:51.712Z,9.00
2023-05-19T18:08:18.777Z,9.30
2023-05-19T18:10:51.585Z,9.20
2023-05-19T18:13:18.492Z,8.80
2023-05-19T18:15:45.168Z,9.20
2023-05-19T18:18:12.363Z,9.60
2023-05-19T18:20:41.129Z,9.30
2023-05-19T18:23:07.893Z,9.30
2023-05-19T18:25:35.333Z,8.90
2023-05-19T18:30:28.597Z,9.20
2023-05-19T18:32:55.524Z,10.00
2023-05-19T18:35:22.259Z,9.70
2023-05-19T18:37:48.949Z,10.40
2023-05-19T18:40:15.691Z,8.70
2023-05-19T18:42:42.341Z,9.30
2023-05-19T18:45:09.612Z,9.20
2023-05-19T18:47:36.719Z,9.60
2023-05-19T18:50:04.185Z,9.10
2023-05-19T18:52:31.393Z,10.30
2023-05-19T18:54:59.650Z,10.10
2023-05-19T18:57:26.354Z,9.70
2023-05-19T18:59:53.144Z,9.30
2023-05-19T19:02:19.770Z,9.40
2023-05-19T19:04:46.417Z,9.90
2023-05-19T19:07:13.229Z,10.50
2023-05-19T19:09:43.685Z,9.90
2023-05-19T19:12:10.920Z,10.40
2023-05-19T19:14:38.548Z,10.10
2023-05-19T19:19:32.344Z,11.20
2023-05-19T19:24:26.701Z,10.00
2023-05-19T19:29:21.940Z,9.70
2023-05-19T19:31:48.892Z,10.30
2023-05-19T19:34:15.768Z,10.20
2023-05-19T19:36:42.521Z,10.10
2023-05-19T19:39:09.534Z,10.20
2023-05-19T19:41:36.807Z,10.20
2023-05-19T19:46:30.448Z,11.20
2023-05-19T19:49:00.396Z,11.50
2023-05-19T19:51:27.896Z,10.80
2023-05-19T19:56:23.672Z,9.90
2023-05-19T19:58:51.163Z,9.50
2023-05-19T20:01:20.572Z,9.00
2023-05-19T20:03:48.107Z,9.40
2023-05-19T20:06:15.014Z,9.10
2023-05-19T20:08:41.696Z,9.10
2023-05-19T20:11:08.325Z,9.20
2023-05-19T20:13:34.965Z,9.60
2023-05-19T20:16:01.652Z,9.40
2023-05-19T20:18:29.883Z,9.20
2023-05-19T20:20:57.119Z,9.30
2023-05-19T20:23:23.985Z,9.40
2023-05-19T20:26:09.919Z,9.20
2023-05-19T20:28:37.444Z,9.00
2023-05-19T20:31:04.969Z,8.40
2023-05-19T20:33:32.081Z,9.60
2023-05-19T20:35:58.742Z,9.70
2023-05-19T20:38:25.466Z,9.60
2023-05-19T20:40:52.708Z,8.70
2023-05-19T20:43:19.396Z,9.30
2023-05-19T20:45:46.541Z,10.00
2023-05-19T20:48:13.350Z,8.90
2023-05-19T20:50:40.516Z,9.60
2023-05-19T20:53:07.585Z,10.60
2023-05-19T20:55:36.307Z,9.00
2023-05-19T20:58:03.141Z,10.00
2023-05-19T21:00:30.719Z,9.40
2023-05-19T21:05:24.668Z,9.10
2023-05-19T21:07:51.400Z,10.40
2023-05-19T21:10:18.221Z,10.00
2023-05-19T21:12:44.910Z,10.30
2023-05-19T21:15:11.677Z,11.50
2023-05-19T21:17:38.404Z,10.70
2023-05-19T21:20:05.940Z,11.30
2023-05-19T21:24:59.602Z,10.90
2023-05-19T21:27:26.262Z,10.90
2023-05-19T21:29:54.155Z,10.80
2023-05-19T21:32:21.396Z,11.50
2023-05-19T21:34:48.103Z,10.80
2023-05-19T21:37:16.428Z,11.50
2023-05-19T21:39:43.791Z,11.00
2023-05-19T21:42:10.495Z,11.30
2023-05-19T21:44:37.348Z,11.60
2023-05-19T21:47:04.066Z,12.30
2023-05-19T21:49:31.403Z,12.30
2023-05-19T21:54:25.150Z,11.50
2023-05-19T21:56:51.835Z,11.20
2023-05-19T21:59:19.512Z,12.10
2023-05-19T22:01:46.851Z,12.20
2023-05-19T22:04:16.020Z,11.80
2023-05-19T22:06:43.310Z,11.80
2023-05-19T22:09:10.152Z,12.50
2023-05-19T22:11:36.810Z,12.10
2023-05-19T22:14:03.457Z,12.20
2023-05-19T22:16:31.209Z,12.40
2023-05-19T22:18:58.207Z,11.60
2023-05-19T22:21:25.855Z,12.30
2023-05-19T22:23:52.997Z,10.60
2023-05-19T22:26:19.907Z,11.90
2023-05-19T22:28:46.547Z,11.30
2023-05-19T22:31:13.196Z,10.50
2023-05-19T22:33:39.823Z,10.20
2023-05-19T22:36:06.863Z,10.50
2023-05-19T22:38:33.674Z,10.00
2023-05-19T22:41:00.343Z,9.70
2023-05-19T22:43:27.034Z,9.60
2023-05-19T22:45:53.733Z,9.80
2023-05-19T22:48:20.615Z,9.90
2023-05-19T22:50:47.253Z,9.40
2023-05-19T22:53:13.899Z,10.30
2023-05-19T22:55:40.511Z,9.60
2023-05-19T22:58:07.475Z,9.70
2023-05-19T23:00:34.134Z,10.10
2023-05-19T23:03:00.856Z,9.90
2023-05-19T23:05:27.545Z,9.70
2023-05-19T23:07:54.484Z,9.90
2023-05-19T23:10:21.110Z,9.60
2023-05-19T23:12:48.834Z,9.40
2023-05-19T23:15:15.800Z,9.20
2023-05-19T23:17:42.477Z,9.50
2023-05-19T23:20:09.874Z,9.60
2023-05-19T23:22:36.777Z,8.80
2023-05-19T23:25:07.927Z,9.70
2023-05-19T23:27:37.748Z,8.70
2023-05-19T23:30:05.119Z,9.50
2023-05-19T23:32:32.113Z,9.50
2023-05-19T23:35:09.283Z,8.50
2023-05-19T23:37:35.982Z,8.70
2023-05-19T23:40:02.821Z,8.80
2023-05-19T23:42:29.475Z,8.30
2023-05-19T23:44:56.123Z,8.40
2023-05-19T23:47:22.788Z,8.40
2023-05-19T23:49:49.588Z,8.60
2023-05-19T23:52:16.238Z,8.60
2023-05-19T23:54:42.867Z,8.60
2023-05-19T23:57:09.535Z,8.80
2023-05-19T23:59:36.464Z,8.30
